sensor_id;sensor_type;location;lat;lon;timestamp;P1;durP1;ratioP1;P2;durP2;ratioP2
9914;SDS011;4996;48.746;9.174;2022-11-27T00:01:40;13.37;;;9.93;;
9914;SDS011;4996;48.746;9.174;2022-11-27T00:04:06;14.35;;;9.23;;
9914;SDS011;4996;48.746;9.174;2022-11-27T00:06:34;12.55;;;9.05;;
9914;SDS011;4996;48.746;9.174;2022-11-27T00:09:02;12.05;;;9.23;;
9914;SDS011;4996;48.746;9.174;2022-11-27T00:11:30;11.95;;;9.77;;
9914;SDS011;4996;48.746;9.174;2022-11-27T00:13:56;20.27;;;9.95;;
9914;SDS011;4996;48.746;9.174;2022-11-27T00:16:23;14.70;;;9.90;;
9914;SDS011;4996;48.746;9.174;2022-11-27T00:18:49;13.27;;;8.65;;
9914;SDS011;4996;48.746;9.174;2022-11-27T00:21:16;12.53;;;9.40;;
9914;SDS011;4996;48.746;9.174;2022-11-27T00:23:48;16.42;;;7.65;;
9914;SDS011;4996;48.746;9.174;2022-11-27T00:26:14;11.95;;;8.70;;
9914;SDS011;4996;48.746;9.174;2022-11-27T00:28:40;17.63;;;9.00;;
9914;SDS011;4996;48.746;9.174;2022-11-27T00:31:07;13.57;;;8.90;;
9914;SDS011;4996;48.746;9.174;2022-11-27T00:33:40;12.52;;;8.68;;
9914;SDS011;4996;48.746;9.174;2022-11-27T00:36:05;13.07;;;8.57;;
9914;SDS011;4996;48.746;9.174;2022-11-27T00:38:32;12.30;;;8.10;;
9914;SDS011;4996;48.746;9.174;2022-11-27T00:41:03;11.30;;;7.53;;
9914;SDS011;4996;48.746;9.174;2022-11-27T00:43:34;13.77;;;8.07;;
9914;SDS011;4996;48.746;9.174;2022-11-27T00:46:01;10.50;;;8.80;;
9914;SDS011;4996;48.746;9.174;2022-11-27T00:48:26;15.33;;;9.10;;
9914;SDS011;4996;48.746;9.174;2022-11-27T00:50:57;11.50;;;8.50;;
9914;SDS011;4996;48.746;9.174;2022-11-27T00:53:27;13.18;;;8.23;;
9914;SDS011;4996;48.746;9.174;2022-11-27T00:55:53;13.87;;;8.47;;
9914;SDS011;4996;48.746;9.174;2022-11-27T00:58:19;12.50;;;8.10;;
9914;SDS011;4996;48.746;9.174;2022-11-27T01:00:45;17.87;;;7.93;;
9914;SDS011;4996;48.746;9.174;2022-11-27T01:03:11;14.97;;;8.10;;
9914;SDS011;4996;48.746;9.174;2022-11-27T01:05:36;10.47;;;7.53;;
9914;SDS011;4996;48.746;9.174;2022-11-27T01:08:02;13.60;;;7.17;;
9914;SDS011;4996;48.746;9.174;2022-11-27T01:10:28;9.90;;;7.75;;
9914;SDS011;4996;48.746;9.174;2022-11-27T01:12:53;12.70;;;8.10;;
9914;SDS011;4996;48.746;9.174;2022-11-27T01:15:19;12.90;;;8.20;;
9914;SDS011;4996;48.746;9.174;2022-11-27T01:17:45;10.83;;;7.20;;
9914;SDS011;4996;48.746;9.174;2022-11-27T01:20:10;11.53;;;8.47;;
9914;SDS011;4996;48.746;9.174;2022-11-27T01:22:36;17.00;;;8.17;;
9914;SDS011;4996;48.746;9.174;2022-11-27T01:25:02;14.37;;;8.53;;
9914;SDS011;4996;48.746;9.174;2022-11-27T01:27:27;15.90;;;8.10;;
9914;SDS011;4996;48.746;9.174;2022-11-27T01:29:53;12.60;;;9.33;;
9914;SDS011;4996;48.746;9.174;2022-11-27T01:32:18;9.13;;;7.20;;
9914;SDS011;4996;48.746;9.174;2022-11-27T01:34:44;22.60;;;8.30;;
9914;SDS011;4996;48.746;9.174;2022-11-27T01:37:09;10.90;;;7.53;;
9914;SDS011;4996;48.746;9.174;2022-11-27T01:39:35;26.03;;;7.90;;
9914;SDS011;4996;48.746;9.174;2022-11-27T01:42:00;13.30;;;8.47;;
9914;SDS011;4996;48.746;9.174;2022-11-27T01:49:24;14.23;;;7.80;;
9914;SDS011;4996;48.746;9.174;2022-11-27T01:51:58;10.10;;;8.00;;
9914;SDS011;4996;48.746;9.174;2022-11-27T01:54:28;14.18;;;8.88;;
9914;SDS011;4996;48.746;9.174;2022-11-27T01:56:59;10.88;;;8.13;;
9914;SDS011;4996;48.746;9.174;2022-11-27T01:59:28;13.00;;;8.25;;
9914;SDS011;4996;48.746;9.174;2022-11-27T02:01:54;10.40;;;8.00;;
9914;SDS011;4996;48.746;9.174;2022-11-27T02:04:20;10.20;;;8.60;;
9914;SDS011;4996;48.746;9.174;2022-11-27T02:06:45;13.50;;;9.23;;
9914;SDS011;4996;48.746;9.174;2022-11-27T02:09:11;16.17;;;8.83;;
9914;SDS011;4996;48.746;9.174;2022-11-27T02:17:21;12.13;;;7.50;;
9914;SDS011;4996;48.746;9.174;2022-11-27T02:36:39;15.82;;;8.43;;
9914;SDS011;4996;48.746;9.174;2022-11-27T02:39:12;15.65;;;8.60;;
9914;SDS011;4996;48.746;9.174;2022-11-27T02:41:49;11.70;;;7.95;;
9914;SDS011;4996;48.746;9.174;2022-11-27T02:44:21;11.52;;;7.70;;
9914;SDS011;4996;48.746;9.174;2022-11-27T02:46:49;17.52;;;8.23;;
9914;SDS011;4996;48.746;9.174;2022-11-27T02:49:17;12.50;;;7.75;;
9914;SDS011;4996;48.746;9.174;2022-11-27T02:51:45;15.85;;;8.80;;
9914;SDS011;4996;48.746;9.174;2022-11-27T02:54:25;9.82;;;7.45;;
9914;SDS011;4996;48.746;9.174;2022-11-27T02:56:53;16.48;;;7.70;;
9914;SDS011;4996;48.746;9.174;2022-11-27T02:59:20;14.07;;;7.57;;
9914;SDS011;4996;48.746;9.174;2022-11-27T03:01:52;10.25;;;7.03;;
9914;SDS011;4996;48.746;9.174;2022-11-27T03:04:22;10.95;;;7.82;;
9914;SDS011;4996;48.746;9.174;2022-11-27T03:07:11;11.88;;;7.60;;
9914;SDS011;4996;48.746;9.174;2022-11-27T03:09:42;9.95;;;6.80;;
9914;SDS011;4996;48.746;9.174;2022-11-27T03:12:11;15.07;;;8.20;;
9914;SDS011;4996;48.746;9.174;2022-11-27T03:14:39;12.68;;;8.00;;
9914;SDS011;4996;48.746;9.174;2022-11-27T03:17:29;11.70;;;8.63;;
9914;SDS011;4996;48.746;9.174;2022-11-27T03:20:20;10.88;;;7.95;;
9914;SDS011;4996;48.746;9.174;2022-11-27T03:22:52;7.80;;;6.40;;
9914;SDS011;4996;48.746;9.174;2022-11-27T03:25:19;12.05;;;6.65;;
9914;SDS011;4996;48.746;9.174;2022-11-27T03:27:47;11.57;;;8.40;;
9914;SDS011;4996;48.746;9.174;2022-11-27T03:30:19;8.75;;;6.32;;
9914;SDS011;4996;48.746;9.174;2022-11-27T03:32:45;10.13;;;7.67;;
9914;SDS011;4996;48.746;9.174;2022-11-27T03:35:11;11.50;;;7.10;;
9914;SDS011;4996;48.746;9.174;2022-11-27T03:37:40;12.68;;;7.30;;
9914;SDS011;4996;48.746;9.174;2022-11-27T03:40:06;8.65;;;6.75;;
9914;SDS011;4996;48.746;9.174;2022-11-27T03:42:35;9.10;;;6.45;;
9914;SDS011;4996;48.746;9.174;2022-11-27T03:50:34;10.20;;;7.40;;
9914;SDS011;4996;48.746;9.174;2022-11-27T03:53:07;10.60;;;7.07;;
9914;SDS011;4996;48.746;9.174;2022-11-27T03:58:53;14.73;;;7.30;;
9914;SDS011;4996;48.746;9.174;2022-11-27T04:01:25;9.73;;;8.00;;
9914;SDS011;4996;48.746;9.174;2022-11-27T04:03:52;11.07;;;6.38;;
9914;SDS011;4996;48.746;9.174;2022-11-27T04:06:18;14.40;;;6.30;;
9914;SDS011;4996;48.746;9.174;2022-11-27T04:08:44;17.57;;;7.37;;
9914;SDS011;4996;48.746;9.174;2022-11-27T04:11:11;10.02;;;7.20;;
9914;SDS011;4996;48.746;9.174;2022-11-27T04:13:37;12.65;;;7.65;;
9914;SDS011;4996;48.746;9.174;2022-11-27T04:16:02;15.30;;;8.33;;
9914;SDS011;4996;48.746;9.174;2022-11-27T04:18:28;10.40;;;6.63;;
9914;SDS011;4996;48.746;9.174;2022-11-27T04:20:54;10.87;;;7.03;;
9914;SDS011;4996;48.746;9.174;2022-11-27T04:23:19;9.40;;;5.73;;
9914;SDS011;4996;48.746;9.174;2022-11-27T04:25:45;11.37;;;6.00;;
9914;SDS011;4996;48.746;9.174;2022-11-27T04:28:12;10.55;;;7.38;;
9914;SDS011;4996;48.746;9.174;2022-11-27T04:30:37;12.00;;;7.20;;
9914;SDS011;4996;48.746;9.174;2022-11-27T04:33:03;10.40;;;6.30;;
9914;SDS011;4996;48.746;9.174;2022-11-27T04:35:28;15.20;;;6.77;;
9914;SDS011;4996;48.746;9.174;2022-11-27T04:37:55;12.47;;;7.50;;
9914;SDS011;4996;48.746;9.174;2022-11-27T04:40:21;9.07;;;6.53;;
9914;SDS011;4996;48.746;9.174;2022-11-27T04:42:46;10.80;;;7.30;;
9914;SDS011;4996;48.746;9.174;2022-11-27T04:45:12;10.47;;;7.13;;
9914;SDS011;4996;48.746;9.174;2022-11-27T04:47:38;11.88;;;7.35;;
9914;SDS011;4996;48.746;9.174;2022-11-27T04:50:04;15.23;;;6.50;;
9914;SDS011;4996;48.746;9.174;2022-11-27T04:52:30;13.15;;;7.15;;
9914;SDS011;4996;48.746;9.174;2022-11-27T04:54:55;10.53;;;6.17;;
9914;SDS011;4996;48.746;9.174;2022-11-27T04:57:21;12.80;;;7.57;;
9914;SDS011;4996;48.746;9.174;2022-11-27T04:59:46;9.50;;;5.50;;
9914;SDS011;4996;48.746;9.174;2022-11-27T05:02:12;13.27;;;7.00;;
9914;SDS011;4996;48.746;9.174;2022-11-27T05:04:37;9.17;;;6.67;;
9914;SDS011;4996;48.746;9.174;2022-11-27T05:07:03;10.70;;;5.50;;
9914;SDS011;4996;48.746;9.174;2022-11-27T05:09:29;10.37;;;6.20;;
9914;SDS011;4996;48.746;9.174;2022-11-27T05:11:54;9.70;;;6.40;;
9914;SDS011;4996;48.746;9.174;2022-11-27T05:14:20;11.43;;;6.87;;
9914;SDS011;4996;48.746;9.174;2022-11-27T05:16:52;10.00;;;6.72;;
9914;SDS011;4996;48.746;9.174;2022-11-27T05:19:19;10.32;;;6.05;;
9914;SDS011;4996;48.746;9.174;2022-11-27T05:21:47;12.75;;;6.20;;
9914;SDS011;4996;48.746;9.174;2022-11-27T05:24:14;9.73;;;6.05;;
9914;SDS011;4996;48.746;9.174;2022-11-27T05:26:40;9.18;;;5.97;;
9914;SDS011;4996;48.746;9.174;2022-11-27T05:29:07;10.65;;;6.07;;
9914;SDS011;4996;48.746;9.174;2022-11-27T05:31:34;6.00;;;5.40;;
9914;SDS011;4996;48.746;9.174;2022-11-27T05:33:59;7.00;;;5.17;;
9914;SDS011;4996;48.746;9.174;2022-11-27T05:36:25;7.73;;;4.80;;
9914;SDS011;4996;48.746;9.174;2022-11-27T05:38:51;7.40;;;5.78;;
9914;SDS011;4996;48.746;9.174;2022-11-27T05:41:17;7.80;;;5.80;;
9914;SDS011;4996;48.746;9.174;2022-11-27T05:43:43;9.03;;;6.00;;
9914;SDS011;4996;48.746;9.174;2022-11-27T05:46:09;9.93;;;5.50;;
9914;SDS011;4996;48.746;9.174;2022-11-27T05:48:37;17.15;;;8.00;;
9914;SDS011;4996;48.746;9.174;2022-11-27T05:51:03;12.27;;;6.97;;
9914;SDS011;4996;48.746;9.174;2022-11-27T05:53:29;8.02;;;6.25;;
9914;SDS011;4996;48.746;9.174;2022-11-27T05:56:05;7.57;;;5.87;;
9914;SDS011;4996;48.746;9.174;2022-11-27T05:58:33;7.65;;;5.80;;
9914;SDS011;4996;48.746;9.174;2022-11-27T06:00:59;6.85;;;5.63;;
9914;SDS011;4996;48.746;9.174;2022-11-27T06:03:25;9.80;;;6.53;;
9914;SDS011;4996;48.746;9.174;2022-11-27T06:05:51;10.63;;;5.90;;
9914;SDS011;4996;48.746;9.174;2022-11-27T06:08:17;8.10;;;5.90;;
9914;SDS011;4996;48.746;9.174;2022-11-27T06:10:43;11.65;;;6.93;;
9914;SDS011;4996;48.746;9.174;2022-11-27T06:13:10;10.65;;;6.97;;
9914;SDS011;4996;48.746;9.174;2022-11-27T06:15:36;10.27;;;5.77;;
9914;SDS011;4996;48.746;9.174;2022-11-27T06:18:02;7.10;;;5.53;;
9914;SDS011;4996;48.746;9.174;2022-11-27T06:20:28;7.20;;;5.90;;
9914;SDS011;4996;48.746;9.174;2022-11-27T06:22:54;6.53;;;5.17;;
9914;SDS011;4996;48.746;9.174;2022-11-27T06:25:20;8.73;;;5.35;;
9914;SDS011;4996;48.746;9.174;2022-11-27T06:27:46;7.10;;;5.33;;
9914;SDS011;4996;48.746;9.174;2022-11-27T06:30:11;9.37;;;5.40;;
9914;SDS011;4996;48.746;9.174;2022-11-27T06:32:37;7.93;;;5.57;;
9914;SDS011;4996;48.746;9.174;2022-11-27T06:35:03;9.83;;;6.27;;
9914;SDS011;4996;48.746;9.174;2022-11-27T06:37:29;6.67;;;4.30;;
9914;SDS011;4996;48.746;9.174;2022-11-27T06:39:54;7.23;;;5.30;;
9914;SDS011;4996;48.746;9.174;2022-11-27T06:42:20;13.40;;;6.17;;
9914;SDS011;4996;48.746;9.174;2022-11-27T06:44:46;8.10;;;5.50;;
9914;SDS011;4996;48.746;9.174;2022-11-27T06:47:11;7.47;;;4.97;;
9914;SDS011;4996;48.746;9.174;2022-11-27T06:49:37;10.13;;;6.13;;
9914;SDS011;4996;48.746;9.174;2022-11-27T06:52:02;7.87;;;5.17;;
9914;SDS011;4996;48.746;9.174;2022-11-27T06:54:28;6.10;;;4.73;;
9914;SDS011;4996;48.746;9.174;2022-11-27T06:56:54;6.30;;;5.43;;
9914;SDS011;4996;48.746;9.174;2022-11-27T06:59:19;7.00;;;5.07;;
9914;SDS011;4996;48.746;9.174;2022-11-27T07:01:45;7.63;;;5.07;;
9914;SDS011;4996;48.746;9.174;2022-11-27T07:04:11;5.90;;;4.67;;
9914;SDS011;4996;48.746;9.174;2022-11-27T07:06:38;9.05;;;5.82;;
9914;SDS011;4996;48.746;9.174;2022-11-27T07:09:05;8.40;;;5.70;;
9914;SDS011;4996;48.746;9.174;2022-11-27T07:11:32;8.38;;;5.05;;
9914;SDS011;4996;48.746;9.174;2022-11-27T07:13:59;10.02;;;6.80;;
9914;SDS011;4996;48.746;9.174;2022-11-27T07:16:26;12.70;;;8.65;;
9914;SDS011;4996;48.746;9.174;2022-11-27T07:18:54;11.10;;;6.85;;
9914;SDS011;4996;48.746;9.174;2022-11-27T07:21:22;16.20;;;7.55;;
9914;SDS011;4996;48.746;9.174;2022-11-27T07:23:48;13.75;;;8.98;;
9914;SDS011;4996;48.746;9.174;2022-11-27T07:26:15;15.05;;;8.27;;
9914;SDS011;4996;48.746;9.174;2022-11-27T07:28:42;11.30;;;7.18;;
9914;SDS011;4996;48.746;9.174;2022-11-27T07:31:09;14.18;;;8.60;;
9914;SDS011;4996;48.746;9.174;2022-11-27T07:33:35;17.35;;;8.50;;
9914;SDS011;4996;48.746;9.174;2022-11-27T07:36:03;13.10;;;8.10;;
9914;SDS011;4996;48.746;9.174;2022-11-27T07:38:30;12.35;;;8.35;;
9914;SDS011;4996;48.746;9.174;2022-11-27T07:41:00;12.37;;;8.17;;
9914;SDS011;4996;48.746;9.174;2022-11-27T07:43:26;13.63;;;7.43;;
9914;SDS011;4996;48.746;9.174;2022-11-27T07:45:53;16.58;;;7.20;;
9914;SDS011;4996;48.746;9.174;2022-11-27T07:48:18;8.07;;;6.10;;
9914;SDS011;4996;48.746;9.174;2022-11-27T07:50:44;13.80;;;7.40;;
9914;SDS011;4996;48.746;9.174;2022-11-27T07:53:09;9.20;;;6.97;;
9914;SDS011;4996;48.746;9.174;2022-11-27T07:55:39;13.00;;;7.67;;
9914;SDS011;4996;48.746;9.174;2022-11-27T07:58:05;10.77;;;8.00;;
9914;SDS011;4996;48.746;9.174;2022-11-27T08:00:32;11.82;;;7.65;;
9914;SDS011;4996;48.746;9.174;2022-11-27T08:02:59;12.93;;;7.75;;
9914;SDS011;4996;48.746;9.174;2022-11-27T08:05:24;11.52;;;6.88;;
9914;SDS011;4996;48.746;9.174;2022-11-27T08:07:50;11.43;;;7.43;;
9914;SDS011;4996;48.746;9.174;2022-11-27T08:10:16;9.77;;;6.53;;
9914;SDS011;4996;48.746;9.174;2022-11-27T08:12:41;9.70;;;6.70;;
9914;SDS011;4996;48.746;9.174;2022-11-27T08:15:07;8.07;;;5.77;;
9914;SDS011;4996;48.746;9.174;2022-11-27T08:17:33;7.10;;;5.57;;
9914;SDS011;4996;48.746;9.174;2022-11-27T08:19:59;9.90;;;6.40;;
9914;SDS011;4996;48.746;9.174;2022-11-27T08:22:24;13.77;;;7.30;;
9914;SDS011;4996;48.746;9.174;2022-11-27T08:24:50;7.17;;;6.13;;
9914;SDS011;4996;48.746;9.174;2022-11-27T08:27:16;10.95;;;6.90;;
9914;SDS011;4996;48.746;9.174;2022-11-27T08:29:42;10.80;;;6.37;;
9914;SDS011;4996;48.746;9.174;2022-11-27T08:32:08;11.07;;;7.67;;
9914;SDS011;4996;48.746;9.174;2022-11-27T08:34:34;7.00;;;6.30;;
9914;SDS011;4996;48.746;9.174;2022-11-27T08:36:59;11.70;;;7.22;;
9914;SDS011;4996;48.746;9.174;2022-11-27T08:39:25;11.70;;;7.10;;
9914;SDS011;4996;48.746;9.174;2022-11-27T08:41:51;9.70;;;7.77;;
9914;SDS011;4996;48.746;9.174;2022-11-27T08:44:18;13.73;;;7.97;;
9914;SDS011;4996;48.746;9.174;2022-11-27T08:46:44;11.98;;;7.50;;
9914;SDS011;4996;48.746;9.174;2022-11-27T08:49:09;11.07;;;6.73;;
9914;SDS011;4996;48.746;9.174;2022-11-27T08:51:35;11.83;;;7.47;;
9914;SDS011;4996;48.746;9.174;2022-11-27T08:54:01;16.60;;;8.27;;
9914;SDS011;4996;48.746;9.174;2022-11-27T08:56:27;10.63;;;8.38;;
9914;SDS011;4996;48.746;9.174;2022-11-27T08:58:53;9.77;;;7.77;;
9914;SDS011;4996;48.746;9.174;2022-11-27T09:01:19;7.90;;;6.50;;
9914;SDS011;4996;48.746;9.174;2022-11-27T09:03:47;11.32;;;7.30;;
9914;SDS011;4996;48.746;9.174;2022-11-27T09:06:15;9.57;;;7.15;;
9914;SDS011;4996;48.746;9.174;2022-11-27T09:08:43;12.80;;;7.47;;
9914;SDS011;4996;48.746;9.174;2022-11-27T09:11:10;13.60;;;6.80;;
9914;SDS011;4996;48.746;9.174;2022-11-27T09:13:37;10.50;;;6.38;;
9914;SDS011;4996;48.746;9.174;2022-11-27T09:16:04;7.43;;;6.15;;
9914;SDS011;4996;48.746;9.174;2022-11-27T09:18:31;12.82;;;6.85;;
9914;SDS011;4996;48.746;9.174;2022-11-27T09:20:58;13.60;;;6.20;;
9914;SDS011;4996;48.746;9.174;2022-11-27T09:23:27;9.20;;;6.57;;
9914;SDS011;4996;48.746;9.174;2022-11-27T09:25:53;7.77;;;6.20;;
9914;SDS011;4996;48.746;9.174;2022-11-27T09:28:21;8.73;;;6.40;;
9914;SDS011;4996;48.746;9.174;2022-11-27T09:30:47;8.73;;;6.63;;
9914;SDS011;4996;48.746;9.174;2022-11-27T09:33:13;8.43;;;6.33;;
9914;SDS011;4996;48.746;9.174;2022-11-27T09:35:38;10.03;;;5.93;;
9914;SDS011;4996;48.746;9.174;2022-11-27T09:38:04;25.47;;;7.10;;
9914;SDS011;4996;48.746;9.174;2022-11-27T09:40:30;10.00;;;6.17;;
9914;SDS011;4996;48.746;9.174;2022-11-27T09:42:59;10.90;;;6.97;;
9914;SDS011;4996;48.746;9.174;2022-11-27T09:45:32;9.30;;;6.60;;
9914;SDS011;4996;48.746;9.174;2022-11-27T09:48:01;9.20;;;7.07;;
9914;SDS011;4996;48.746;9.174;2022-11-27T09:50:36;13.93;;;6.90;;
9914;SDS011;4996;48.746;9.174;2022-11-27T09:56:07;8.27;;;5.83;;
9914;SDS011;4996;48.746;9.174;2022-11-27T09:58:40;11.20;;;6.30;;
9914;SDS011;4996;48.746;9.174;2022-11-27T10:01:23;9.07;;;6.90;;
9914;SDS011;4996;48.746;9.174;2022-11-27T10:03:52;10.77;;;7.00;;
9914;SDS011;4996;48.746;9.174;2022-11-27T10:16:53;12.67;;;6.30;;
9914;SDS011;4996;48.746;9.174;2022-11-27T10:25:25;8.90;;;7.53;;
9914;SDS011;4996;48.746;9.174;2022-11-27T10:30:54;9.87;;;6.70;;
9914;SDS011;4996;48.746;9.174;2022-11-27T10:33:50;7.53;;;5.67;;
9914;SDS011;4996;48.746;9.174;2022-11-27T10:36:37;10.97;;;6.33;;
9914;SDS011;4996;48.746;9.174;2022-11-27T10:39:06;11.50;;;7.67;;
9914;SDS011;4996;48.746;9.174;2022-11-27T10:41:42;10.43;;;7.67;;
9914;SDS011;4996;48.746;9.174;2022-11-27T10:44:24;11.20;;;7.23;;
9914;SDS011;4996;48.746;9.174;2022-11-27T10:46:56;8.77;;;6.53;;
9914;SDS011;4996;48.746;9.174;2022-11-27T10:49:26;10.07;;;7.47;;
9914;SDS011;4996;48.746;9.174;2022-11-27T10:51:51;9.53;;;6.63;;
9914;SDS011;4996;48.746;9.174;2022-11-27T10:54:28;9.23;;;5.93;;
9914;SDS011;4996;48.746;9.174;2022-11-27T10:57:01;7.70;;;4.83;;
9914;SDS011;4996;48.746;9.174;2022-11-27T11:02:34;13.60;;;7.03;;
9914;SDS011;4996;48.746;9.174;2022-11-27T11:05:12;9.03;;;5.20;;
9914;SDS011;4996;48.746;9.174;2022-11-27T11:08:03;5.60;;;4.40;;
9914;SDS011;4996;48.746;9.174;2022-11-27T11:10:42;9.33;;;4.40;;
9914;SDS011;4996;48.746;9.174;2022-11-27T11:13:15;4.13;;;3.73;;
9914;SDS011;4996;48.746;9.174;2022-11-27T11:15:51;7.27;;;3.93;;
9914;SDS011;4996;48.746;9.174;2022-11-27T11:18:26;4.83;;;4.27;;
9914;SDS011;4996;48.746;9.174;2022-11-27T11:20:57;6.97;;;4.00;;
9914;SDS011;4996;48.746;9.174;2022-11-27T11:23:34;4.73;;;4.13;;
9914;SDS011;4996;48.746;9.174;2022-11-27T11:26:23;8.07;;;4.07;;
9914;SDS011;4996;48.746;9.174;2022-11-27T11:28:51;6.47;;;4.90;;
9914;SDS011;4996;48.746;9.174;2022-11-27T11:31:20;6.60;;;4.53;;
9914;SDS011;4996;48.746;9.174;2022-11-27T11:33:57;7.37;;;4.67;;
9914;SDS011;4996;48.746;9.174;2022-11-27T11:36:25;13.00;;;6.63;;
9914;SDS011;4996;48.746;9.174;2022-11-27T11:38:51;7.43;;;4.57;;
9914;SDS011;4996;48.746;9.174;2022-11-27T11:41:17;6.63;;;5.40;;
9914;SDS011;4996;48.746;9.174;2022-11-27T11:43:54;10.57;;;5.30;;
9914;SDS011;4996;48.746;9.174;2022-11-27T11:46:26;9.20;;;5.60;;
9914;SDS011;4996;48.746;9.174;2022-11-27T11:56:42;7.43;;;4.80;;
9914;SDS011;4996;48.746;9.174;2022-11-27T11:59:21;10.90;;;5.40;;
9914;SDS011;4996;48.746;9.174;2022-11-27T12:05:14;4.47;;;3.37;;
9914;SDS011;4996;48.746;9.174;2022-11-27T12:10:51;7.90;;;3.13;;
9914;SDS011;4996;48.746;9.174;2022-11-27T12:13:41;7.00;;;3.73;;
9914;SDS011;4996;48.746;9.174;2022-11-27T12:16:35;8.40;;;4.27;;
9914;SDS011;4996;48.746;9.174;2022-11-27T12:19:23;7.27;;;3.67;;
9914;SDS011;4996;48.746;9.174;2022-11-27T12:22:00;7.40;;;4.40;;
9914;SDS011;4996;48.746;9.174;2022-11-27T12:24:35;4.27;;;3.30;;
9914;SDS011;4996;48.746;9.174;2022-11-27T12:40:34;4.37;;;2.90;;
9914;SDS011;4996;48.746;9.174;2022-11-27T12:43:24;3.77;;;2.70;;
9914;SDS011;4996;48.746;9.174;2022-11-27T12:48:42;4.47;;;3.50;;
9914;SDS011;4996;48.746;9.174;2022-11-27T12:51:15;4.30;;;3.50;;
9914;SDS011;4996;48.746;9.174;2022-11-27T12:53:51;6.10;;;4.57;;
9914;SDS011;4996;48.746;9.174;2022-11-27T12:58:58;3.97;;;3.27;;
9914;SDS011;4996;48.746;9.174;2022-11-27T13:01:34;5.97;;;3.73;;
9914;SDS011;4996;48.746;9.174;2022-11-27T13:04:12;7.17;;;3.83;;
9914;SDS011;4996;48.746;9.174;2022-11-27T13:07:11;7.20;;;3.70;;
9914;SDS011;4996;48.746;9.174;2022-11-27T13:09:48;4.80;;;3.10;;
9914;SDS011;4996;48.746;9.174;2022-11-27T13:12:28;5.70;;;3.50;;
9914;SDS011;4996;48.746;9.174;2022-11-27T13:15:12;5.27;;;3.63;;
9914;SDS011;4996;48.746;9.174;2022-11-27T13:17:48;4.20;;;3.00;;
9914;SDS011;4996;48.746;9.174;2022-11-27T13:20:20;7.13;;;4.47;;
9914;SDS011;4996;48.746;9.174;2022-11-27T13:22:52;4.67;;;3.40;;
9914;SDS011;4996;48.746;9.174;2022-11-27T13:25:18;6.30;;;3.23;;
9914;SDS011;4996;48.746;9.174;2022-11-27T13:27:44;5.13;;;3.90;;
9914;SDS011;4996;48.746;9.174;2022-11-27T13:30:20;4.77;;;3.57;;
9914;SDS011;4996;48.746;9.174;2022-11-27T13:32:55;6.23;;;3.37;;
9914;SDS011;4996;48.746;9.174;2022-11-27T13:35:29;5.13;;;3.47;;
9914;SDS011;4996;48.746;9.174;2022-11-27T13:37:57;5.93;;;3.90;;
9914;SDS011;4996;48.746;9.174;2022-11-27T13:40:41;7.10;;;4.70;;
9914;SDS011;4996;48.746;9.174;2022-11-27T13:45:45;6.43;;;3.70;;
9914;SDS011;4996;48.746;9.174;2022-11-27T13:48:22;5.40;;;3.80;;
9914;SDS011;4996;48.746;9.174;2022-11-27T13:51:00;5.17;;;4.43;;
9914;SDS011;4996;48.746;9.174;2022-11-27T13:53:34;7.17;;;4.80;;
9914;SDS011;4996;48.746;9.174;2022-11-27T13:56:02;7.40;;;4.70;;
9914;SDS011;4996;48.746;9.174;2022-11-27T13:58:32;12.70;;;5.10;;
9914;SDS011;4996;48.746;9.174;2022-11-27T14:01:16;7.83;;;5.33;;
9914;SDS011;4996;48.746;9.174;2022-11-27T14:03:43;12.30;;;6.40;;
9914;SDS011;4996;48.746;9.174;2022-11-27T14:06:42;7.70;;;5.67;;
9914;SDS011;4996;48.746;9.174;2022-11-27T14:09:03;10.90;;;5.40;;
9914;SDS011;4996;48.746;9.174;2022-11-27T14:11:38;9.37;;;5.70;;
9914;SDS011;4996;48.746;9.174;2022-11-27T14:14:19;16.97;;;8.20;;
9914;SDS011;4996;48.746;9.174;2022-11-27T14:16:56;18.00;;;8.20;;
9914;SDS011;4996;48.746;9.174;2022-11-27T14:19:42;14.90;;;7.67;;
9914;SDS011;4996;48.746;9.174;2022-11-27T14:25:29;8.53;;;6.60;;
9914;SDS011;4996;48.746;9.174;2022-11-27T14:28:14;10.67;;;6.13;;
9914;SDS011;4996;48.746;9.174;2022-11-27T14:33:19;10.03;;;6.40;;
9914;SDS011;4996;48.746;9.174;2022-11-27T14:35:51;7.10;;;5.70;;
9914;SDS011;4996;48.746;9.174;2022-11-27T14:38:19;8.67;;;6.80;;
9914;SDS011;4996;48.746;9.174;2022-11-27T14:40:49;10.60;;;7.57;;
9914;SDS011;4996;48.746;9.174;2022-11-27T14:43:19;8.70;;;6.40;;
9914;SDS011;4996;48.746;9.174;2022-11-27T14:45:53;11.40;;;7.40;;
9914;SDS011;4996;48.746;9.174;2022-11-27T14:48:24;7.67;;;5.80;;
9914;SDS011;4996;48.746;9.174;2022-11-27T14:50:53;8.43;;;5.57;;
9914;SDS011;4996;48.746;9.174;2022-11-27T14:53:20;6.70;;;4.57;;
9914;SDS011;4996;48.746;9.174;2022-11-27T14:55:48;9.73;;;5.33;;
9914;SDS011;4996;48.746;9.174;2022-11-27T14:58:21;7.77;;;5.40;;
9914;SDS011;4996;48.746;9.174;2022-11-27T15:01:00;8.57;;;5.30;;
9914;SDS011;4996;48.746;9.174;2022-11-27T15:03:28;9.67;;;5.50;;
9914;SDS011;4996;48.746;9.174;2022-11-27T15:05:55;6.90;;;5.47;;
9914;SDS011;4996;48.746;9.174;2022-11-27T15:08:26;7.17;;;4.83;;
9914;SDS011;4996;48.746;9.174;2022-11-27T15:10:54;8.53;;;6.40;;
9914;SDS011;4996;48.746;9.174;2022-11-27T15:13:22;8.80;;;5.63;;
9914;SDS011;4996;48.746;9.174;2022-11-27T15:15:57;7.53;;;5.50;;
9914;SDS011;4996;48.746;9.174;2022-11-27T15:18:27;6.50;;;4.70;;
9914;SDS011;4996;48.746;9.174;2022-11-27T15:20:55;8.37;;;6.07;;
9914;SDS011;4996;48.746;9.174;2022-11-27T15:23:25;9.40;;;5.80;;
9914;SDS011;4996;48.746;9.174;2022-11-27T15:30:54;6.83;;;4.57;;
9914;SDS011;4996;48.746;9.174;2022-11-27T15:33:27;6.73;;;5.80;;
9914;SDS011;4996;48.746;9.174;2022-11-27T15:38:39;7.87;;;6.30;;
9914;SDS011;4996;48.746;9.174;2022-11-27T15:41:15;12.57;;;6.70;;
9914;SDS011;4996;48.746;9.174;2022-11-27T15:43:44;12.47;;;7.27;;
9914;SDS011;4996;48.746;9.174;2022-11-27T15:46:11;9.50;;;6.60;;
9914;SDS011;4996;48.746;9.174;2022-11-27T15:48:38;10.17;;;7.57;;
9914;SDS011;4996;48.746;9.174;2022-11-27T15:51:03;14.20;;;8.43;;
9914;SDS011;4996;48.746;9.174;2022-11-27T15:53:29;12.10;;;7.80;;
9914;SDS011;4996;48.746;9.174;2022-11-27T15:55:56;12.40;;;8.07;;
9914;SDS011;4996;48.746;9.174;2022-11-27T15:58:22;11.20;;;7.00;;
9914;SDS011;4996;48.746;9.174;2022-11-27T16:00:47;7.97;;;6.00;;
9914;SDS011;4996;48.746;9.174;2022-11-27T16:03:13;9.50;;;6.13;;
9914;SDS011;4996;48.746;9.174;2022-11-27T16:05:39;9.17;;;7.60;;
9914;SDS011;4996;48.746;9.174;2022-11-27T16:08:05;13.03;;;7.40;;
9914;SDS011;4996;48.746;9.174;2022-11-27T16:10:31;13.53;;;8.10;;
9914;SDS011;4996;48.746;9.174;2022-11-27T16:12:57;15.53;;;8.60;;
9914;SDS011;4996;48.746;9.174;2022-11-27T16:15:23;12.50;;;7.60;;
9914;SDS011;4996;48.746;9.174;2022-11-27T16:17:48;13.50;;;7.73;;
9914;SDS011;4996;48.746;9.174;2022-11-27T16:20:14;10.53;;;7.80;;
9914;SDS011;4996;48.746;9.174;2022-11-27T16:22:40;15.33;;;9.30;;
9914;SDS011;4996;48.746;9.174;2022-11-27T16:25:05;12.10;;;8.77;;
9914;SDS011;4996;48.746;9.174;2022-11-27T16:27:31;13.20;;;7.37;;
9914;SDS011;4996;48.746;9.174;2022-11-27T16:29:57;17.27;;;11.50;;
9914;SDS011;4996;48.746;9.174;2022-11-27T16:32:22;10.60;;;7.77;;
9914;SDS011;4996;48.746;9.174;2022-11-27T16:34:48;11.70;;;7.60;;
9914;SDS011;4996;48.746;9.174;2022-11-27T16:37:14;10.67;;;7.60;;
9914;SDS011;4996;48.746;9.174;2022-11-27T16:39:40;19.20;;;6.67;;
9914;SDS011;4996;48.746;9.174;2022-11-27T16:42:06;10.00;;;6.23;;
9914;SDS011;4996;48.746;9.174;2022-11-27T16:44:32;8.17;;;6.43;;
9914;SDS011;4996;48.746;9.174;2022-11-27T16:46:57;10.23;;;6.70;;
9914;SDS011;4996;48.746;9.174;2022-11-27T16:49:23;8.13;;;6.30;;
9914;SDS011;4996;48.746;9.174;2022-11-27T16:51:48;7.40;;;5.20;;
9914;SDS011;4996;48.746;9.174;2022-11-27T16:54:14;9.03;;;5.87;;
9914;SDS011;4996;48.746;9.174;2022-11-27T16:56:40;8.37;;;5.77;;
9914;SDS011;4996;48.746;9.174;2022-11-27T16:59:09;10.80;;;5.40;;
9914;SDS011;4996;48.746;9.174;2022-11-27T17:01:38;9.50;;;5.93;;
9914;SDS011;4996;48.746;9.174;2022-11-27T17:04:05;8.93;;;6.30;;
9914;SDS011;4996;48.746;9.174;2022-11-27T17:06:33;7.70;;;5.47;;
9914;SDS011;4996;48.746;9.174;2022-11-27T17:09:02;8.13;;;5.83;;
9914;SDS011;4996;48.746;9.174;2022-11-27T17:11:30;9.07;;;5.67;;